Mito, Japan

4:18 PM JST on February 26, 2017 (GMT +0900)
Naucalpan | | Change Station

Elev 108 ft 36.45 °N, 140.50 °E | Updated 13 seconds ago

Partly Cloudy
Partly Cloudy
52.5 °F
Feels Like 52.5 °F
N
1.9
Wind Variable Wind from NW
Gusts 5.0 mph

Today
High -- | Low -- °F
--% Chance of Precip.
Yesterday
High -- | Low -- °F
Precip. -- in
Pressure 30.01 in
Visibility 6.2 miles
Clouds Few 3000 ft
Mostly Cloudy 8000 ft
Mostly Cloudy 25000 ft
Dew Point 32 °F
Humidity 46%
Rainfall 0.00 in
Snow Depth Not available.
6:12 AM 5:29 PM
Waning Crescent, 0% visible
METAR RJAH 260700Z 17008KT 9999 FEW030 BKN080 BKN250 11/M02 Q1016
Pressure 30.01 in
Visibility 6.2 miles
Clouds Few 3000 ft
Mostly Cloudy 8000 ft
Mostly Cloudy 25000 ft
Dew Point 32 °F
Humidity 46%
Rainfall 0.00 in
Snow Depth Not available.
6:12 AM 5:29 PM
Waning Crescent, 0% visible
METAR RJAH 260700Z 17008KT 9999 FEW030 BKN080 BKN250 11/M02 Q1016

Get Your Daily Forecast Email!

Thanks for signing up!

Be on the lookout for a verification email in your inbox.

You'll start receiving the daily forecast at 8 AM.

×

10-Day Weather Forecast

No radar image for this location.
×

Almanac

Astronomy

Feb. 26, 2017 Rise Set
Actual Time
Civil Twilight
Nautical Twilight
Astronomical Twilight
Moon
Length of Visible Light
Length of Day
Tomorrow will be .
, % of the Moon is Illuminated

Today's Extremes

Country Highs Country Lows

Community

WunderPhotos

Upload Photos

1,962,540 photos uploaded!

WunderBlog® & News

Nearby

Air Quality

  Air Quality AQ Index Pollutant
Not available.

Snow Depth

Station Depth Elevation

Earthquake Activity

City Distance Mag. Time & Date
Minimum magnitude displayed is 2.5.

Coastal Water Temperatures

Place Temperature

Stations

Nearby Weather Stations

Station Location Temp. Windchill Dew Point Humidity Wind Precip. Elev Updated Type